createdAt,value
2022-09-12T00:01:18.211Z,6.55
2022-09-12T00:03:45.485Z,4.05
2022-09-12T00:06:24.517Z,4.68
2022-09-12T00:08:54.187Z,7.35
2022-09-12T00:11:21.604Z,5.45
2022-09-12T00:13:49.080Z,7.40
2022-09-12T00:16:18.367Z,3.95
2022-09-12T00:18:47.060Z,4.82
2022-09-12T00:21:15.537Z,5.72
2022-09-12T00:23:42.550Z,4.40
2022-09-12T00:26:09.696Z,5.57
2022-09-12T00:28:38.109Z,3.90
2022-09-12T00:31:07.936Z,4.47
2022-09-12T00:33:36.056Z,7.72
2022-09-12T00:36:08.857Z,4.50
2022-09-12T00:38:38.754Z,5.22
2022-09-12T00:41:06.425Z,3.28
2022-09-12T00:43:42.757Z,3.22
2022-09-12T00:46:40.202Z,3.20
2022-09-12T00:49:18.440Z,7.35
2022-09-12T00:51:50.938Z,4.40
2022-09-12T00:54:22.559Z,4.93
2022-09-12T00:56:50.856Z,4.95
2022-09-12T00:59:22.148Z,4.20
2022-09-12T01:01:51.341Z,3.25
2022-09-12T01:04:20.811Z,4.90
2022-09-12T01:06:48.734Z,4.82
2022-09-12T01:09:20.988Z,3.20
2022-09-12T01:11:48.702Z,4.30
2022-09-12T01:14:17.379Z,4.28
2022-09-12T01:16:45.458Z,3.92
2022-09-12T01:19:31.938Z,4.88
2022-09-12T01:22:29.776Z,7.05
2022-09-12T01:25:29.035Z,5.68
2022-09-12T01:28:27.017Z,6.97
2022-09-12T01:31:13.946Z,6.38
2022-09-12T01:34:02.426Z,4.03
2022-09-12T01:36:29.613Z,6.03
2022-09-12T01:39:00.751Z,5.85
2022-09-12T01:41:50.247Z,7.10
2022-09-12T01:44:24.638Z,3.67
2022-09-12T01:47:14.118Z,5.13
2022-09-12T01:49:47.067Z,3.75
2022-09-12T01:52:21.836Z,5.70
2022-09-12T01:54:55.010Z,5.20
2022-09-12T01:57:32.658Z,6.13
2022-09-12T02:00:08.957Z,6.88
2022-09-12T02:02:48.617Z,4.38
2022-09-12T02:05:19.048Z,3.58
2022-09-12T02:07:54.136Z,5.60
2022-09-12T02:10:29.164Z,5.22
2022-09-12T02:13:08.585Z,7.25
2022-09-12T02:15:40.906Z,3.95
2022-09-12T02:18:09.017Z,4.00
2022-09-12T02:20:48.937Z,3.95
2022-09-12T02:23:22.559Z,5.55
2022-09-12T02:25:53.994Z,4.90
2022-09-12T02:28:28.262Z,4.13
2022-09-12T02:31:17.488Z,6.13
2022-09-12T02:34:10.655Z,5.38
2022-09-12T02:36:50.530Z,3.15
2022-09-12T02:39:20.181Z,4.25
2022-09-12T02:41:55.019Z,4.50
2022-09-12T02:44:22.477Z,5.38
2022-09-12T02:46:53.577Z,7.90
2022-09-12T02:49:20.559Z,3.50
2022-09-12T02:51:48.221Z,3.55
2022-09-12T02:54:16.124Z,3.50
2022-09-12T02:56:44.387Z,4.28
2022-09-12T02:59:14.573Z,4.00
2022-09-12T03:02:08.416Z,4.65
2022-09-12T03:04:59.207Z,4.32
2022-09-12T03:07:44.673Z,4.93
2022-09-12T03:10:25.209Z,3.45
2022-09-12T03:12:59.519Z,3.70
2022-09-12T03:15:32.137Z,3.33
2022-09-12T03:18:06.359Z,3.78
2022-09-12T03:20:42.344Z,4.93
2022-09-12T03:23:37.543Z,4.65
2022-09-12T03:26:10.146Z,6.07
2022-09-12T03:28:40.186Z,4.80
2022-09-12T03:31:19.047Z,6.53
2022-09-12T03:33:46.257Z,4.80
2022-09-12T03:36:21.235Z,4.28
2022-09-12T03:38:48.177Z,2.97
2022-09-12T03:41:15.346Z,3.92
2022-09-12T03:43:42.298Z,4.25
2022-09-12T03:46:09.275Z,4.35
2022-09-12T03:48:36.367Z,6.07
2022-09-12T03:51:09.202Z,7.85
2022-09-12T03:53:36.598Z,5.03
2022-09-12T03:56:08.538Z,4.50
2022-09-12T04:01:12.778Z,5.95
2022-09-12T04:03:41.561Z,3.00
2022-09-12T04:06:10.050Z,4.32
2022-09-12T04:08:37.913Z,3.63
2022-09-12T04:11:13.068Z,5.85
2022-09-12T04:13:41.650Z,3.10
2022-09-12T04:16:09.041Z,3.78
2022-09-12T04:18:36.334Z,3.20
2022-09-12T04:21:15.184Z,5.97
2022-09-12T04:23:42.561Z,5.28
2022-09-12T04:26:10.218Z,8.73
2022-09-12T04:28:38.349Z,6.60
2022-09-12T04:31:24.026Z,3.25
2022-09-12T04:33:56.047Z,4.05
2022-09-12T04:36:23.807Z,6.45
2022-09-12T04:38:51.631Z,4.55
2022-09-12T04:41:22.307Z,3.28
2022-09-12T04:43:53.457Z,3.00
2022-09-12T04:46:21.215Z,5.60
2022-09-12T04:48:51.349Z,2.90
2022-09-12T04:51:26.021Z,5.10
2022-09-12T04:53:54.589Z,3.35
2022-09-12T04:56:22.431Z,3.03
2022-09-12T04:58:49.904Z,6.43
2022-09-12T05:01:21.744Z,4.40
2022-09-12T05:03:49.741Z,7.22
2022-09-12T05:06:19.268Z,3.80
2022-09-12T05:08:47.025Z,3.47
2022-09-12T05:11:17.604Z,4.65
2022-09-12T05:13:46.820Z,5.45
2022-09-12T05:16:15.733Z,4.45
2022-09-12T05:18:44.403Z,3.33
2022-09-12T05:21:13.226Z,4.78
2022-09-12T05:23:40.384Z,4.97
2022-09-12T05:26:08.778Z,4.18
2022-09-12T05:28:37.627Z,4.13
2022-09-12T05:31:11.452Z,4.22
2022-09-12T05:33:41.526Z,3.50
2022-09-12T05:36:11.701Z,4.63
2022-09-12T05:38:39.410Z,7.78
2022-09-12T05:41:24.181Z,2.47
2022-09-12T05:43:53.921Z,3.90
2022-09-12T05:46:22.746Z,4.40
2022-09-12T05:48:55.103Z,3.13
2022-09-12T05:51:25.588Z,3.47
2022-09-12T05:53:55.156Z,4.03
2022-09-12T05:56:24.768Z,3.53
2022-09-12T05:58:59.351Z,3.05
2022-09-12T06:01:27.825Z,2.55
2022-09-12T06:03:57.802Z,2.97
2022-09-12T06:06:25.757Z,3.88
2022-09-12T06:08:55.061Z,2.88
2022-09-12T06:11:23.495Z,2.20
2022-09-12T06:13:51.167Z,3.00
2022-09-12T06:16:20.510Z,2.28
2022-09-12T06:18:49.419Z,2.35
2022-09-12T06:21:17.045Z,3.65
2022-09-12T06:23:46.295Z,3.45
2022-09-12T06:26:13.949Z,4.72
2022-09-12T06:28:42.164Z,3.05
2022-09-12T06:31:14.941Z,4.00
2022-09-12T06:33:44.215Z,3.08
2022-09-12T06:36:16.285Z,3.03
2022-09-12T06:38:44.189Z,2.85
2022-09-12T06:41:12.503Z,1.45
2022-09-12T06:43:40.681Z,3.05
2022-09-12T06:46:09.164Z,2.03
2022-09-12T06:48:41.534Z,1.58
2022-09-12T06:51:13.967Z,3.42
2022-09-12T06:53:42.734Z,2.42
2022-09-12T06:56:14.875Z,3.22
2022-09-12T06:58:42.826Z,2.78
2022-09-12T07:01:12.636Z,2.83
2022-09-12T07:03:40.249Z,1.17
2022-09-12T07:06:14.614Z,1.23
2022-09-12T07:08:42.167Z,3.53
2022-09-12T07:11:12.595Z,1.65
2022-09-12T07:13:40.954Z,3.70
2022-09-12T07:16:08.625Z,3.45
2022-09-12T07:18:38.103Z,1.90
2022-09-12T07:21:07.634Z,2.45
2022-09-12T07:23:34.853Z,2.90
2022-09-12T07:26:02.242Z,4.78
2022-09-12T07:28:31.462Z,3.63
2022-09-12T07:31:02.279Z,2.33
2022-09-12T07:33:30.325Z,2.22
2022-09-12T07:36:01.895Z,1.48
2022-09-12T07:38:28.954Z,1.75
2022-09-12T07:40:55.943Z,0.70
2022-09-12T07:43:23.579Z,2.05
2022-09-12T07:45:56.000Z,1.52
2022-09-12T07:48:23.326Z,1.95
2022-09-12T07:51:01.434Z,2.08
2022-09-12T07:53:34.136Z,2.03
2022-09-12T07:56:03.327Z,2.97
2022-09-12T07:58:31.346Z,2.60
2022-09-12T08:01:06.039Z,3.25
2022-09-12T08:03:33.314Z,2.47
2022-09-12T08:06:08.253Z,1.02
2022-09-12T08:08:35.394Z,2.90
2022-09-12T08:11:06.085Z,3.08
2022-09-12T08:13:35.196Z,4.07
2022-09-12T08:16:08.326Z,2.38
2022-09-12T08:18:36.495Z,1.85
2022-09-12T08:21:08.334Z,1.33
2022-09-12T08:26:06.147Z,1.10
2022-09-12T08:28:35.564Z,3.10
2022-09-12T08:31:07.721Z,2.03
2022-09-12T08:33:35.128Z,2.05
2022-09-12T08:36:10.382Z,1.15
2022-09-12T08:38:39.243Z,1.15
2022-09-12T08:41:06.343Z,1.50
2022-09-12T08:43:45.028Z,1.30
2022-09-12T08:46:23.329Z,1.65
2022-09-12T08:48:50.424Z,1.67
2022-09-12T08:51:19.507Z,1.85
2022-09-12T08:53:48.195Z,1.33
2022-09-12T08:56:15.408Z,1.20
2022-09-12T08:58:44.855Z,2.10
2022-09-12T09:01:33.543Z,1.95
2022-09-12T09:04:29.066Z,1.05
2022-09-12T09:07:04.765Z,1.30
2022-09-12T09:09:41.203Z,1.70
2022-09-12T09:12:22.424Z,1.92
2022-09-12T09:15:12.135Z,1.67
2022-09-12T09:17:43.078Z,1.98
2022-09-12T09:20:13.623Z,1.70
2022-09-12T09:22:46.025Z,1.58
2022-09-12T09:25:43.915Z,1.50
2022-09-12T09:28:18.605Z,2.10
2022-09-12T09:30:46.646Z,3.92
2022-09-12T09:33:29.054Z,1.33
2022-09-12T09:36:22.636Z,2.85
2022-09-12T09:38:54.315Z,3.17
2022-09-12T09:42:02.024Z,1.20
2022-09-12T09:44:29.984Z,1.45
2022-09-12T09:46:59.443Z,2.33
2022-09-12T09:49:31.984Z,1.10
2022-09-12T09:52:02.594Z,1.10
2022-09-12T09:54:50.751Z,4.13
2022-09-12T09:57:36.443Z,1.13
2022-09-12T10:00:25.024Z,0.88
2022-09-12T10:03:13.756Z,1.00
2022-09-12T10:06:33.275Z,1.85
2022-09-12T10:09:17.967Z,1.35
2022-09-12T10:11:46.884Z,3.42
2022-09-12T10:14:38.063Z,1.45
2022-09-12T10:17:33.900Z,1.92
2022-09-12T10:20:20.468Z,2.42
2022-09-12T10:22:48.884Z,0.82
2022-09-12T10:25:16.904Z,1.08
2022-09-12T10:27:43.905Z,3.90
2022-09-12T10:30:18.805Z,2.20
2022-09-12T10:32:50.799Z,1.98
2022-09-12T10:35:33.495Z,1.77
2022-09-12T10:38:03.941Z,1.30
2022-09-12T10:40:35.524Z,1.08
2022-09-12T10:43:03.217Z,5.00
2022-09-12T10:45:32.775Z,1.65
2022-09-12T10:48:07.372Z,1.48
2022-09-12T10:50:42.925Z,3.58
2022-09-12T10:53:21.693Z,1.65
2022-09-12T10:56:10.606Z,3.50
2022-09-12T10:58:59.283Z,1.38
2022-09-12T11:01:32.526Z,1.20
2022-09-12T11:04:21.344Z,1.35
2022-09-12T11:07:25.800Z,1.15
2022-09-12T11:10:33.148Z,4.80
2022-09-12T11:13:34.174Z,1.10
2022-09-12T11:16:11.124Z,4.95
2022-09-12T11:18:48.823Z,3.33
2022-09-12T11:21:34.535Z,0.68
2022-09-12T11:24:26.145Z,1.40
2022-09-12T11:27:13.344Z,0.68
2022-09-12T11:29:52.519Z,3.10
2022-09-12T11:33:10.664Z,1.70
2022-09-12T11:35:54.999Z,1.52
2022-09-12T11:38:33.554Z,0.63
2022-09-12T11:41:15.565Z,1.00
2022-09-12T11:46:39.585Z,1.42
2022-09-12T11:49:17.547Z,1.23
2022-09-12T11:51:47.604Z,0.77
2022-09-12T11:54:30.025Z,0.93
2022-09-12T11:57:22.755Z,1.15
2022-09-12T11:59:53.214Z,1.20
2022-09-12T12:02:29.147Z,1.77
2022-09-12T12:05:37.855Z,3.20
2022-09-12T12:08:06.331Z,1.15
2022-09-12T12:10:37.444Z,0.70
2022-09-12T12:13:22.365Z,2.65
2022-09-12T12:15:52.749Z,2.40
2022-09-12T12:18:23.902Z,1.38
2022-09-12T12:20:51.926Z,3.60
2022-09-12T12:23:34.535Z,2.25
2022-09-12T12:26:04.718Z,3.42
2022-09-12T12:28:50.744Z,1.15
2022-09-12T12:31:18.371Z,0.40
2022-09-12T12:33:45.362Z,5.82
2022-09-12T12:36:38.703Z,1.38
2022-09-12T12:39:36.837Z,0.80
2022-09-12T12:42:04.084Z,0.63
2022-09-12T12:44:50.275Z,1.73
2022-09-12T12:47:23.374Z,4.05
2022-09-12T12:49:52.937Z,1.33
2022-09-12T12:52:20.564Z,4.32
2022-09-12T12:54:47.816Z,0.57
2022-09-12T12:57:20.529Z,0.45
2022-09-12T12:59:48.605Z,2.03
2022-09-12T13:02:31.889Z,2.80
2022-09-12T13:05:01.196Z,2.15
2022-09-12T13:07:31.725Z,2.72
2022-09-12T13:09:59.849Z,0.70
2022-09-12T13:12:38.614Z,1.63
2022-09-12T13:15:42.225Z,0.30
2022-09-12T13:18:24.144Z,1.27
2022-09-12T13:21:16.426Z,1.33
2022-09-12T13:26:14.106Z,0.80
2022-09-12T13:28:41.164Z,2.90
2022-09-12T13:31:26.600Z,1.85
2022-09-12T13:34:02.975Z,0.80
2022-09-12T13:36:54.935Z,1.20
2022-09-12T13:39:28.355Z,1.20
2022-09-12T13:42:01.365Z,1.55
2022-09-12T13:44:28.699Z,0.50
2022-09-12T13:46:59.474Z,1.17
2022-09-12T13:49:36.265Z,0.50
2022-09-12T13:52:04.380Z,0.93
2022-09-12T13:54:31.974Z,0.50
2022-09-12T13:56:59.893Z,2.55
2022-09-12T13:59:26.801Z,1.15
2022-09-12T14:01:53.839Z,2.42
2022-09-12T14:04:42.094Z,1.10
2022-09-12T14:07:19.715Z,0.98
2022-09-12T14:09:54.164Z,3.58
2022-09-12T14:12:43.534Z,0.55
2022-09-12T14:15:27.680Z,1.58
2022-09-12T14:18:01.500Z,0.95
2022-09-12T14:20:33.585Z,0.52
2022-09-12T14:25:41.389Z,1.17
2022-09-12T14:28:13.886Z,1.58
2022-09-12T14:30:41.233Z,2.38
2022-09-12T14:33:11.297Z,2.22
2022-09-12T14:35:43.800Z,1.25
2022-09-12T14:38:17.090Z,1.40
2022-09-12T14:40:49.949Z,1.40
2022-09-12T14:43:27.257Z,1.48
2022-09-12T14:45:59.933Z,2.08
2022-09-12T14:48:36.472Z,2.25
2022-09-12T14:51:04.205Z,2.38
2022-09-12T14:53:32.984Z,1.23
2022-09-12T14:56:11.191Z,1.63
2022-09-12T14:58:39.426Z,0.68
2022-09-12T15:01:06.407Z,1.27
2022-09-12T15:03:54.025Z,1.00
2022-09-12T15:06:28.410Z,0.90
2022-09-12T15:08:57.463Z,2.38
2022-09-12T15:11:24.854Z,2.38
2022-09-12T15:13:52.114Z,3.95
2022-09-12T15:16:19.371Z,1.45
2022-09-12T15:18:46.480Z,1.40
2022-09-12T15:21:17.920Z,1.20
2022-09-12T15:23:49.935Z,1.40
2022-09-12T15:26:20.075Z,3.20
2022-09-12T15:28:47.274Z,3.35
2022-09-12T15:31:22.835Z,4.20
2022-09-12T15:33:50.216Z,2.90
2022-09-12T15:36:20.211Z,3.40
2022-09-12T15:38:48.154Z,1.50
2022-09-12T15:41:27.297Z,1.95
2022-09-12T15:43:54.563Z,6.18
2022-09-12T15:46:21.987Z,2.22
2022-09-12T15:48:50.237Z,6.95
2022-09-12T15:51:19.602Z,2.88
2022-09-12T15:53:48.079Z,4.57
2022-09-12T15:56:16.930Z,3.70
2022-09-12T15:58:57.795Z,1.15
2022-09-12T16:03:53.333Z,2.90
2022-09-12T16:06:20.608Z,1.83
2022-09-12T16:08:47.717Z,3.58
2022-09-12T16:11:23.448Z,2.22
2022-09-12T16:13:53.183Z,5.20
2022-09-12T16:16:20.567Z,3.60
2022-09-12T16:18:47.871Z,2.13
2022-09-12T16:21:15.863Z,2.33
2022-09-12T16:23:48.473Z,3.55
2022-09-12T16:26:15.898Z,7.72
2022-09-12T16:28:43.358Z,4.95
2022-09-12T16:31:13.191Z,3.13
2022-09-12T16:33:40.629Z,3.10
2022-09-12T16:36:09.725Z,4.93
2022-09-12T16:38:55.124Z,5.43
2022-09-12T16:41:25.188Z,5.82
2022-09-12T16:43:52.625Z,5.03
2022-09-12T16:46:28.805Z,2.47
2022-09-12T16:48:57.948Z,5.05
2022-09-12T16:51:33.475Z,4.13
2022-09-12T16:54:00.966Z,5.47
2022-09-12T16:56:28.148Z,4.85
2022-09-12T16:58:55.662Z,5.43
2022-09-12T17:01:24.598Z,8.45
2022-09-12T17:03:56.738Z,4.28
2022-09-12T17:06:25.456Z,6.45
2022-09-12T17:08:53.839Z,11.20
2022-09-12T17:11:25.604Z,18.75
2022-09-12T17:14:05.818Z,17.27
2022-09-12T17:16:35.679Z,15.07
2022-09-12T17:19:02.899Z,4.10
2022-09-12T17:21:29.784Z,4.63
2022-09-12T17:23:57.136Z,10.52
2022-09-12T17:26:24.020Z,13.70
2022-09-12T17:28:51.001Z,69.90
2022-09-12T17:31:18.150Z,104.57
2022-09-12T17:33:45.333Z,91.15
2022-09-12T17:36:17.985Z,161.98
2022-09-12T17:38:45.870Z,46.35
2022-09-12T17:41:18.686Z,8.05
2022-09-12T17:43:47.475Z,11.13
2022-09-12T17:46:14.731Z,42.33
2022-09-12T17:48:41.866Z,13.95
2022-09-12T17:51:13.815Z,5.90
2022-09-12T17:56:08.404Z,7.13
2022-09-12T17:58:35.886Z,6.78
2022-09-12T18:01:28.989Z,8.15
2022-09-12T18:03:57.374Z,15.38
2022-09-12T18:06:24.651Z,12.57
2022-09-12T18:08:51.969Z,20.02
2022-09-12T18:11:19.284Z,20.38
2022-09-12T18:13:47.608Z,27.13
2022-09-12T18:16:14.794Z,24.05
2022-09-12T18:18:41.931Z,22.10
2022-09-12T18:21:11.056Z,28.75
2022-09-12T18:23:38.568Z,27.88
2022-09-12T18:26:07.874Z,27.10
2022-09-12T18:28:37.120Z,33.92
2022-09-12T18:31:04.785Z,36.47
2022-09-12T18:33:32.258Z,33.20
2022-09-12T18:36:04.689Z,33.10
2022-09-12T18:38:32.544Z,39.53
2022-09-12T18:41:04.482Z,33.13
2022-09-12T18:46:16.693Z,24.35
2022-09-12T18:48:45.484Z,32.58
2022-09-12T18:51:17.999Z,37.92
2022-09-12T18:53:52.106Z,38.25
2022-09-12T18:56:19.738Z,46.35
2022-09-12T18:58:50.767Z,35.67
2022-09-12T19:01:26.439Z,37.83
2022-09-12T19:03:54.940Z,35.00
2022-09-12T19:06:22.956Z,28.58
2022-09-12T19:08:51.340Z,18.50
2022-09-12T19:11:18.934Z,16.38
2022-09-12T19:13:47.760Z,16.25
2022-09-12T19:16:17.914Z,15.25
2022-09-12T19:18:48.136Z,17.17
2022-09-12T19:21:24.571Z,33.25
2022-09-12T19:23:52.490Z,26.40
2022-09-12T19:26:20.606Z,23.40
2022-09-12T19:28:47.831Z,26.63
2022-09-12T19:31:19.156Z,24.75
2022-09-12T19:33:47.654Z,19.52
2022-09-12T19:36:41.286Z,20.15
2022-09-12T19:39:08.907Z,20.77
2022-09-12T19:41:36.877Z,24.00
2022-09-12T19:44:05.198Z,21.80
2022-09-12T19:46:33.025Z,23.17
2022-09-12T19:49:00.347Z,30.30
2022-09-12T19:51:27.696Z,27.88
2022-09-12T19:53:55.772Z,25.63
2022-09-12T19:56:23.513Z,31.25
2022-09-12T19:58:55.722Z,35.58
2022-09-12T20:01:30.586Z,36.88
2022-09-12T20:03:59.145Z,37.97
2022-09-12T20:06:27.630Z,45.55
2022-09-12T20:08:55.826Z,45.33
2022-09-12T20:11:23.928Z,40.35
2022-09-12T20:13:51.811Z,46.65
2022-09-12T20:16:22.600Z,37.60
2022-09-12T20:18:56.143Z,36.65
2022-09-12T20:21:26.292Z,36.30
2022-09-12T20:23:53.348Z,35.92
2022-09-12T20:26:20.638Z,44.10
2022-09-12T20:28:47.964Z,36.55
2022-09-12T20:31:16.515Z,38.70
2022-09-12T20:33:47.561Z,37.25
2022-09-12T20:36:19.414Z,37.00
2022-09-12T20:38:51.874Z,33.10
2022-09-12T20:41:22.268Z,32.75
2022-09-12T20:43:51.261Z,32.53
2022-09-12T20:46:21.909Z,32.33
2022-09-12T20:48:50.707Z,30.88
2022-09-12T20:51:18.339Z,31.98
2022-09-12T20:53:45.619Z,37.38
2022-09-12T20:56:12.774Z,38.17
2022-09-12T20:58:43.800Z,35.05
2022-09-12T21:01:12.641Z,43.17
2022-09-12T21:03:40.725Z,48.22
2022-09-12T21:06:09.169Z,45.53
2022-09-12T21:08:37.196Z,45.38
2022-09-12T21:11:05.282Z,40.08
2022-09-12T21:13:32.191Z,51.13
2022-09-12T21:16:04.363Z,44.25
2022-09-12T21:18:32.743Z,61.35
2022-09-12T21:20:59.762Z,58.58
2022-09-12T21:23:27.689Z,52.97
2022-09-12T21:25:54.924Z,47.58
2022-09-12T21:28:22.239Z,42.38
2022-09-12T21:30:49.929Z,45.25
2022-09-12T21:33:18.329Z,43.22
2022-09-12T21:35:46.045Z,42.83
2022-09-12T21:38:13.558Z,38.88
2022-09-12T21:40:40.549Z,41.30
2022-09-12T21:43:12.329Z,41.78
2022-09-12T21:45:40.044Z,42.67
2022-09-12T21:48:07.116Z,42.65
2022-09-12T21:50:34.310Z,38.35
2022-09-12T21:53:01.445Z,37.10
2022-09-12T21:55:28.757Z,36.75
2022-09-12T21:57:55.899Z,35.83
2022-09-12T22:00:23.395Z,38.25
2022-09-12T22:02:50.550Z,29.63
2022-09-12T22:05:21.417Z,43.38
2022-09-12T22:07:48.475Z,41.83
2022-09-12T22:10:15.557Z,37.88
2022-09-12T22:12:46.229Z,38.17
2022-09-12T22:15:39.025Z,40.50
2022-09-12T22:18:01.594Z,39.00
2022-09-12T22:20:28.677Z,42.25
2022-09-12T22:23:14.171Z,39.75
2022-09-12T22:25:55.356Z,34.75
2022-09-12T22:28:22.776Z,39.08
2022-09-12T22:30:49.869Z,38.83
2022-09-12T22:33:16.995Z,33.60
2022-09-12T22:35:44.280Z,33.80
2022-09-12T22:38:11.337Z,32.58
2022-09-12T22:40:38.473Z,27.88
2022-09-12T22:43:05.803Z,27.02
2022-09-12T22:45:32.733Z,34.33
2022-09-12T22:48:00.975Z,31.75
2022-09-12T22:50:28.715Z,33.58
2022-09-12T22:52:56.228Z,31.80
2022-09-12T22:55:23.594Z,25.85
2022-09-12T22:57:50.601Z,28.92
2022-09-12T23:00:19.433Z,26.45
2022-09-12T23:02:46.953Z,25.98
2022-09-12T23:05:13.970Z,30.45
2022-09-12T23:07:40.977Z,25.40
2022-09-12T23:10:08.399Z,28.08
2022-09-12T23:12:35.359Z,33.85
2022-09-12T23:15:02.362Z,28.70
2022-09-12T23:17:29.362Z,34.35
2022-09-12T23:19:56.472Z,30.45
2022-09-12T23:22:23.414Z,29.27
2022-09-12T23:24:50.451Z,29.45
2022-09-12T23:27:17.537Z,23.30
2022-09-12T23:29:44.817Z,31.00
2022-09-12T23:32:12.309Z,26.75
2022-09-12T23:34:39.400Z,36.58
2022-09-12T23:37:07.004Z,32.08
2022-09-12T23:39:34.247Z,37.22
2022-09-12T23:42:01.194Z,36.42
2022-09-12T23:44:28.252Z,35.55
2022-09-12T23:46:55.193Z,40.05
2022-09-12T23:49:22.321Z,36.20
2022-09-12T23:51:49.276Z,33.25
2022-09-12T23:54:16.492Z,34.97
2022-09-12T23:56:43.513Z,44.35
2022-09-12T23:59:10.538Z,38.65
